createdAt,value
2023-02-07T00:01:16.729Z,6.88
2023-02-07T00:03:43.872Z,6.30
2023-02-07T00:06:13.982Z,6.60
2023-02-07T00:08:41.196Z,5.75
2023-02-07T00:11:12.770Z,6.55
2023-02-07T00:13:39.338Z,6.80
2023-02-07T00:16:06.850Z,6.30
2023-02-07T00:18:34.196Z,6.15
2023-02-07T00:21:03.529Z,6.43
2023-02-07T00:23:30.215Z,6.70
2023-02-07T00:25:56.919Z,6.53
2023-02-07T00:28:23.626Z,6.93
2023-02-07T00:30:50.168Z,6.80
2023-02-07T00:33:16.725Z,7.22
2023-02-07T00:35:43.449Z,7.35
2023-02-07T00:38:09.862Z,6.50
2023-02-07T00:40:36.303Z,6.50
2023-02-07T00:43:02.761Z,7.20
2023-02-07T00:45:29.113Z,6.43
2023-02-07T00:47:55.503Z,7.15
2023-02-07T00:50:21.869Z,6.90
2023-02-07T00:52:48.245Z,6.40
2023-02-07T00:55:14.594Z,6.22
2023-02-07T00:57:40.989Z,6.43
2023-02-07T01:00:08.144Z,7.03
2023-02-07T01:02:34.501Z,6.72
2023-02-07T01:05:01.006Z,7.10
2023-02-07T01:07:27.369Z,6.60
2023-02-07T01:09:53.709Z,6.97
2023-02-07T01:12:20.066Z,6.80
2023-02-07T01:14:46.398Z,6.10
2023-02-07T01:17:13.794Z,6.40
2023-02-07T01:19:40.196Z,6.93
2023-02-07T01:22:06.550Z,7.35
2023-02-07T01:24:35.142Z,6.40
2023-02-07T01:27:02.497Z,6.63
2023-02-07T01:29:28.850Z,7.13
2023-02-07T01:31:55.292Z,6.32
2023-02-07T01:34:21.669Z,7.45
2023-02-07T01:36:48.061Z,6.13
2023-02-07T01:39:14.522Z,7.07
2023-02-07T01:41:40.848Z,7.30
2023-02-07T01:44:28.770Z,6.05
2023-02-07T01:46:56.625Z,6.82
2023-02-07T01:49:27.102Z,6.80
2023-02-07T01:51:56.599Z,7.30
2023-02-07T01:54:23.467Z,7.23
2023-02-07T01:56:58.141Z,6.95
2023-02-07T01:59:25.281Z,6.70
2023-02-07T02:01:51.801Z,7.43
2023-02-07T02:04:18.279Z,7.07
2023-02-07T02:06:46.306Z,6.40
2023-02-07T02:09:15.117Z,6.63
2023-02-07T02:11:57.068Z,7.35
2023-02-07T02:14:48.392Z,7.07
2023-02-07T02:17:38.715Z,6.70
2023-02-07T02:20:29.708Z,6.63
2023-02-07T02:23:14.938Z,6.75
2023-02-07T02:25:55.545Z,7.05
2023-02-07T02:29:06.425Z,7.07
2023-02-07T02:32:03.413Z,7.22
2023-02-07T02:34:32.847Z,6.57
2023-02-07T02:37:22.461Z,7.35
2023-02-07T02:40:09.954Z,6.85
2023-02-07T02:43:05.112Z,6.38
2023-02-07T02:45:39.181Z,7.03
2023-02-07T02:48:09.584Z,6.87
2023-02-07T02:50:36.013Z,7.43
2023-02-07T02:53:02.708Z,6.55
2023-02-07T02:55:43.932Z,7.07
2023-02-07T02:58:39.828Z,7.20
2023-02-07T03:01:17.714Z,6.60
2023-02-07T03:03:55.478Z,6.70
2023-02-07T03:06:35.785Z,6.47
2023-02-07T03:09:17.425Z,7.22
2023-02-07T03:11:58.105Z,7.20
2023-02-07T03:14:42.715Z,6.87
2023-02-07T03:17:34.500Z,7.07
2023-02-07T03:20:14.596Z,6.18
2023-02-07T03:22:44.409Z,6.35
2023-02-07T03:25:14.905Z,7.82
2023-02-07T03:27:42.553Z,6.73
2023-02-07T03:30:12.517Z,7.00
2023-02-07T03:32:43.817Z,6.97
2023-02-07T03:35:15.978Z,7.70
2023-02-07T03:37:47.936Z,7.85
2023-02-07T03:40:15.058Z,7.57
2023-02-07T03:42:55.505Z,7.05
2023-02-07T03:45:23.005Z,6.90
2023-02-07T03:47:49.842Z,6.43
2023-02-07T03:50:17.574Z,6.85
2023-02-07T03:52:43.903Z,7.60
2023-02-07T03:55:10.409Z,6.95
2023-02-07T03:57:37.070Z,6.80
2023-02-07T04:00:05.656Z,7.05
2023-02-07T04:02:32.081Z,6.93
2023-02-07T04:04:58.432Z,7.10
2023-02-07T04:07:24.841Z,6.70
2023-02-07T04:09:51.285Z,7.13
2023-02-07T04:12:17.735Z,6.78
2023-02-07T04:14:44.193Z,7.15
2023-02-07T04:17:10.572Z,6.70
2023-02-07T04:19:36.927Z,7.07
2023-02-07T04:22:03.572Z,6.97
2023-02-07T04:24:32.090Z,6.82
2023-02-07T04:26:59.528Z,7.07
2023-02-07T04:29:26.663Z,7.17
2023-02-07T04:31:53.102Z,7.18
2023-02-07T04:34:19.557Z,7.03
2023-02-07T04:36:45.936Z,7.63
2023-02-07T04:39:12.332Z,8.60
2023-02-07T04:41:38.767Z,7.97
2023-02-07T04:44:05.265Z,7.97
2023-02-07T04:46:31.729Z,7.32
2023-02-07T04:48:58.189Z,6.63
2023-02-07T04:51:24.521Z,6.30
2023-02-07T04:53:50.933Z,6.90
2023-02-07T04:56:17.363Z,8.25
2023-02-07T04:58:43.772Z,6.35
2023-02-07T05:01:10.126Z,6.82
2023-02-07T05:03:36.436Z,6.63
2023-02-07T05:06:02.891Z,6.83
2023-02-07T05:08:29.245Z,6.57
2023-02-07T05:10:56.959Z,6.45
2023-02-07T05:13:24.129Z,6.65
2023-02-07T05:15:51.323Z,6.30
2023-02-07T05:18:18.124Z,5.93
2023-02-07T05:20:44.678Z,6.65
2023-02-07T05:23:11.119Z,6.53
2023-02-07T05:25:37.822Z,6.30
2023-02-07T05:28:04.578Z,6.78
2023-02-07T05:30:31.111Z,6.50
2023-02-07T05:33:03.789Z,5.72
2023-02-07T05:35:36.578Z,6.88
2023-02-07T05:38:07.461Z,7.05
2023-02-07T05:40:34.725Z,7.70
2023-02-07T05:43:01.085Z,6.23
2023-02-07T05:45:27.463Z,7.30
2023-02-07T05:47:53.834Z,5.65
2023-02-07T05:50:20.338Z,6.57
2023-02-07T05:52:46.722Z,6.72
2023-02-07T05:55:13.097Z,6.63
2023-02-07T05:57:41.846Z,6.47
2023-02-07T06:00:17.344Z,7.15
2023-02-07T06:02:44.451Z,5.90
2023-02-07T06:05:13.371Z,6.50
2023-02-07T06:07:39.823Z,5.97
2023-02-07T06:10:07.559Z,6.50
2023-02-07T06:12:34.569Z,6.78
2023-02-07T06:15:01.358Z,6.32
2023-02-07T06:17:27.966Z,6.55
2023-02-07T06:19:54.382Z,6.23
2023-02-07T06:22:20.772Z,6.68
2023-02-07T06:24:47.217Z,7.10
2023-02-07T06:27:13.539Z,7.22
2023-02-07T06:29:39.908Z,7.55
2023-02-07T06:32:06.354Z,7.37
2023-02-07T06:34:33.051Z,8.38
2023-02-07T06:36:59.427Z,7.80
2023-02-07T06:39:25.867Z,8.38
2023-02-07T06:41:52.234Z,7.95
2023-02-07T06:44:18.638Z,8.80
2023-02-07T06:46:45.045Z,9.23
2023-02-07T06:49:11.546Z,8.95
2023-02-07T06:51:37.929Z,8.43
2023-02-07T06:54:08.268Z,8.10
2023-02-07T06:56:34.658Z,7.87
2023-02-07T06:59:01.028Z,9.73
2023-02-07T07:01:27.753Z,8.68
2023-02-07T07:03:54.131Z,8.45
2023-02-07T07:06:20.519Z,8.90
2023-02-07T07:08:46.896Z,8.33
2023-02-07T07:11:13.326Z,8.27
2023-02-07T07:13:39.658Z,9.15
2023-02-07T07:16:06.284Z,8.80
2023-02-07T07:18:32.685Z,9.05
2023-02-07T07:20:59.072Z,8.33
2023-02-07T07:23:25.458Z,8.55
2023-02-07T07:25:52.651Z,7.97
2023-02-07T07:28:19.123Z,8.23
2023-02-07T07:30:45.529Z,8.68
2023-02-07T07:33:11.972Z,8.53
2023-02-07T07:35:38.719Z,8.55
2023-02-07T07:38:05.295Z,8.32
2023-02-07T07:40:31.737Z,9.07
2023-02-07T07:42:58.145Z,9.02
2023-02-07T07:45:24.728Z,9.23
2023-02-07T07:47:51.119Z,9.68
2023-02-07T07:50:17.485Z,9.85
2023-02-07T07:52:43.861Z,10.00
2023-02-07T07:55:10.534Z,8.88
2023-02-07T07:57:36.977Z,9.23
2023-02-07T08:00:04.735Z,10.18
2023-02-07T08:02:31.642Z,10.15
2023-02-07T08:04:58.050Z,8.98
2023-02-07T08:07:24.430Z,9.73
2023-02-07T08:09:50.754Z,10.47
2023-02-07T08:12:17.137Z,9.43
2023-02-07T08:14:43.576Z,10.68
2023-02-07T08:17:10.068Z,10.10
2023-02-07T08:19:38.220Z,10.93
2023-02-07T08:22:04.626Z,10.43
2023-02-07T08:24:31.108Z,10.40
2023-02-07T08:26:57.492Z,11.25
2023-02-07T08:29:23.833Z,12.02
2023-02-07T08:31:50.216Z,11.82
2023-02-07T08:34:18.217Z,11.27
2023-02-07T08:36:44.613Z,10.82
2023-02-07T08:39:11.165Z,10.68
2023-02-07T08:41:37.521Z,11.07
2023-02-07T08:44:03.863Z,10.40
2023-02-07T08:46:30.300Z,12.63
2023-02-07T08:48:56.784Z,11.38
2023-02-07T08:51:23.286Z,10.55
2023-02-07T08:53:49.764Z,10.82
2023-02-07T08:56:16.180Z,11.27
2023-02-07T08:58:42.609Z,10.80
2023-02-07T09:01:11.252Z,11.45
2023-02-07T09:03:38.229Z,11.55
2023-02-07T09:06:05.394Z,11.45
2023-02-07T09:08:32.100Z,12.80
2023-02-07T09:10:58.505Z,11.33
2023-02-07T09:13:25.007Z,11.65
2023-02-07T09:15:55.898Z,11.70
2023-02-07T09:18:23.233Z,12.02
2023-02-07T09:20:49.666Z,11.68
2023-02-07T09:23:19.355Z,10.80
2023-02-07T09:25:52.386Z,10.35
2023-02-07T09:28:20.261Z,10.40
2023-02-07T09:30:47.398Z,9.68
2023-02-07T09:33:15.392Z,10.50
2023-02-07T09:35:46.293Z,9.93
2023-02-07T09:38:15.630Z,9.43
2023-02-07T09:40:43.723Z,9.23
2023-02-07T09:43:47.722Z,8.75
2023-02-07T09:46:33.066Z,8.68
2023-02-07T09:49:10.906Z,9.27
2023-02-07T09:51:39.898Z,8.27
2023-02-07T09:54:22.461Z,9.20
2023-02-07T09:56:52.224Z,8.18
2023-02-07T09:59:37.712Z,8.10
2023-02-07T10:02:13.317Z,7.83
2023-02-07T10:04:44.076Z,7.95
2023-02-07T10:07:13.169Z,8.15
2023-02-07T10:09:43.079Z,8.38
2023-02-07T10:12:25.005Z,8.18
2023-02-07T10:15:13.847Z,8.10
2023-02-07T10:18:01.865Z,8.68
2023-02-07T10:20:40.828Z,8.73
2023-02-07T10:23:33.621Z,7.95
2023-02-07T10:25:59.921Z,8.05
2023-02-07T10:28:45.945Z,7.03
2023-02-07T10:31:18.544Z,7.47
2023-02-07T10:33:52.612Z,7.35
2023-02-07T10:36:19.229Z,7.28
2023-02-07T10:38:52.155Z,7.18
2023-02-07T10:41:39.635Z,7.37
2023-02-07T10:44:09.902Z,7.65
2023-02-07T10:46:39.425Z,8.95
2023-02-07T10:49:05.868Z,10.52
2023-02-07T10:51:45.863Z,16.38
2023-02-07T10:54:14.541Z,16.80
2023-02-07T10:56:44.344Z,16.98
2023-02-07T10:59:31.557Z,14.65
2023-02-07T11:01:58.219Z,11.55
2023-02-07T11:04:35.669Z,7.45
2023-02-07T11:07:04.703Z,5.73
2023-02-07T11:09:32.167Z,6.28
2023-02-07T11:11:58.617Z,6.30
2023-02-07T11:14:28.198Z,5.82
2023-02-07T11:16:57.137Z,5.82
2023-02-07T11:19:29.466Z,5.20
2023-02-07T11:22:17.700Z,5.10
2023-02-07T11:24:45.324Z,5.10
2023-02-07T11:27:15.429Z,5.80
2023-02-07T11:29:58.324Z,4.00
2023-02-07T11:32:27.396Z,3.17
2023-02-07T11:35:05.842Z,3.47
2023-02-07T11:37:37.518Z,3.50
2023-02-07T11:40:27.837Z,3.33
2023-02-07T11:43:03.629Z,3.55
2023-02-07T11:45:34.345Z,2.57
2023-02-07T11:48:02.928Z,2.90
2023-02-07T11:50:41.702Z,3.05
2023-02-07T11:53:24.506Z,2.97
2023-02-07T11:55:54.486Z,3.15
2023-02-07T11:58:39.743Z,3.30
2023-02-07T12:01:07.774Z,3.58
2023-02-07T12:03:52.701Z,2.97
2023-02-07T12:06:23.134Z,3.15
2023-02-07T12:08:50.194Z,3.33
2023-02-07T12:11:26.725Z,2.73
2023-02-07T12:14:03.648Z,2.97
2023-02-07T12:16:34.136Z,3.17
2023-02-07T12:19:27.446Z,3.03
2023-02-07T12:22:31.591Z,3.00
2023-02-07T12:25:22.300Z,2.87
2023-02-07T12:27:52.021Z,3.38
2023-02-07T12:30:33.377Z,3.60
2023-02-07T12:33:21.642Z,3.55
2023-02-07T12:36:11.229Z,3.60
2023-02-07T12:39:01.818Z,3.67
2023-02-07T12:41:35.473Z,4.05
2023-02-07T12:44:07.173Z,3.20
2023-02-07T12:46:49.249Z,4.20
2023-02-07T12:49:35.066Z,4.20
2023-02-07T12:52:27.893Z,3.97
2023-02-07T12:55:00.529Z,3.85
2023-02-07T12:57:48.404Z,4.47
2023-02-07T13:00:28.473Z,3.97
2023-02-07T13:03:29.081Z,4.50
2023-02-07T13:06:46.762Z,4.27
2023-02-07T13:09:22.105Z,4.25
2023-02-07T13:12:01.691Z,4.25
2023-02-07T13:15:17.897Z,4.30
2023-02-07T13:17:54.734Z,4.10
2023-02-07T13:20:38.201Z,4.23
2023-02-07T13:23:14.597Z,5.07
2023-02-07T13:25:43.219Z,5.13
2023-02-07T13:28:42.707Z,5.25
2023-02-07T13:31:13.811Z,4.45
2023-02-07T13:33:40.970Z,4.97
2023-02-07T13:36:17.604Z,5.15
2023-02-07T13:38:56.011Z,4.57
2023-02-07T13:41:39.560Z,4.72
2023-02-07T13:44:20.251Z,4.78
2023-02-07T13:46:56.501Z,4.83
2023-02-07T13:49:38.911Z,4.65
2023-02-07T13:52:14.958Z,5.35
2023-02-07T13:54:50.699Z,4.45
2023-02-07T13:57:55.996Z,4.28
2023-02-07T14:00:26.191Z,4.63
2023-02-07T14:02:56.586Z,4.68
2023-02-07T14:05:27.924Z,4.75
2023-02-07T14:08:01.696Z,4.47
2023-02-07T14:10:42.813Z,4.75
2023-02-07T14:13:20.513Z,4.57
2023-02-07T14:15:46.928Z,4.40
2023-02-07T14:18:38.611Z,4.85
2023-02-07T14:21:20.800Z,5.28
2023-02-07T14:24:32.313Z,4.53
2023-02-07T14:27:01.623Z,4.80
2023-02-07T14:29:30.751Z,4.50
2023-02-07T14:32:02.613Z,4.72
2023-02-07T14:34:31.724Z,4.70
2023-02-07T14:37:00.277Z,4.65
2023-02-07T14:39:33.436Z,3.87
2023-02-07T14:42:15.835Z,4.15
2023-02-07T14:44:45.214Z,3.60
2023-02-07T14:47:21.729Z,3.75
2023-02-07T14:49:51.420Z,4.20
2023-02-07T14:52:31.138Z,3.13
2023-02-07T14:55:02.076Z,3.72
2023-02-07T14:57:54.184Z,3.95
2023-02-07T15:00:47.190Z,3.67
2023-02-07T15:03:17.648Z,3.60
2023-02-07T15:06:04.428Z,3.70
2023-02-07T15:08:34.770Z,3.65
2023-02-07T15:11:04.649Z,3.65
2023-02-07T15:13:31.020Z,3.80
2023-02-07T15:16:04.017Z,3.90
2023-02-07T15:18:34.816Z,3.40
2023-02-07T15:21:01.769Z,3.50
2023-02-07T15:23:30.743Z,3.63
2023-02-07T15:26:01.654Z,3.30
2023-02-07T15:28:30.391Z,4.22
2023-02-07T15:31:02.855Z,4.47
2023-02-07T15:33:41.004Z,4.00
2023-02-07T15:36:31.419Z,3.75
2023-02-07T15:38:59.612Z,3.85
2023-02-07T15:41:27.386Z,3.88
2023-02-07T15:44:00.572Z,3.33
2023-02-07T15:46:42.612Z,3.72
2023-02-07T15:49:09.065Z,4.22
2023-02-07T15:51:41.195Z,3.17
2023-02-07T15:54:15.594Z,4.13
2023-02-07T15:56:45.686Z,3.60
2023-02-07T15:59:19.128Z,3.40
2023-02-07T16:01:55.463Z,3.80
2023-02-07T16:04:26.779Z,4.05
2023-02-07T16:07:12.233Z,4.22
2023-02-07T16:09:40.771Z,4.00
2023-02-07T16:12:22.919Z,3.53
2023-02-07T16:14:49.585Z,4.50
2023-02-07T16:17:24.241Z,5.15
2023-02-07T16:19:50.592Z,5.65
2023-02-07T16:22:21.345Z,5.20
2023-02-07T16:24:50.884Z,5.18
2023-02-07T16:27:20.535Z,5.15
2023-02-07T16:29:47.924Z,4.65
2023-02-07T16:32:14.716Z,4.85
2023-02-07T16:34:53.794Z,5.20
2023-02-07T16:37:24.098Z,5.35
2023-02-07T16:39:50.491Z,5.28
2023-02-07T16:42:19.502Z,5.05
2023-02-07T16:44:46.931Z,5.22
2023-02-07T16:47:13.733Z,4.93
2023-02-07T16:49:43.760Z,5.28
2023-02-07T16:52:10.321Z,6.65
2023-02-07T16:54:36.745Z,5.72
2023-02-07T16:57:04.053Z,6.07
2023-02-07T16:59:30.711Z,5.80
2023-02-07T17:01:57.214Z,6.50
2023-02-07T17:04:23.659Z,6.97
2023-02-07T17:06:50.375Z,6.72
2023-02-07T17:09:20.306Z,6.47
2023-02-07T17:11:47.045Z,6.63
2023-02-07T17:14:13.908Z,6.35
2023-02-07T17:16:40.979Z,6.40
2023-02-07T17:19:18.305Z,6.43
2023-02-07T17:21:46.379Z,6.43
2023-02-07T17:24:13.044Z,5.40
2023-02-07T17:26:43.708Z,6.32
2023-02-07T17:29:12.796Z,5.93
2023-02-07T17:31:39.657Z,5.90
2023-02-07T17:34:06.563Z,6.47
2023-02-07T17:36:34.314Z,6.47
2023-02-07T17:39:01.107Z,6.43
2023-02-07T17:41:27.465Z,6.10
2023-02-07T17:43:54.433Z,5.85
2023-02-07T17:46:24.240Z,6.80
2023-02-07T17:48:51.841Z,6.50
2023-02-07T17:51:20.829Z,6.88
2023-02-07T17:53:47.331Z,6.60
2023-02-07T17:56:30.913Z,6.65
2023-02-07T17:59:00.226Z,7.53
2023-02-07T18:01:26.655Z,7.03
2023-02-07T18:03:54.828Z,7.53
2023-02-07T18:06:26.970Z,6.63
2023-02-07T18:08:56.447Z,8.18
2023-02-07T18:11:23.949Z,8.25
2023-02-07T18:13:50.365Z,9.27
2023-02-07T18:16:22.807Z,8.60
2023-02-07T18:18:51.290Z,8.55
2023-02-07T18:21:18.037Z,7.75
2023-02-07T18:23:44.822Z,8.80
2023-02-07T18:26:14.877Z,9.07
2023-02-07T18:28:43.018Z,9.27
2023-02-07T18:31:11.954Z,10.00
2023-02-07T18:33:38.421Z,10.20
2023-02-07T18:36:05.386Z,10.80
2023-02-07T18:38:31.830Z,11.47
2023-02-07T18:40:58.168Z,11.20
2023-02-07T18:43:24.506Z,10.82
2023-02-07T18:45:50.896Z,10.63
2023-02-07T18:48:17.336Z,11.65
2023-02-07T18:50:44.581Z,11.03
2023-02-07T18:53:12.389Z,11.20
2023-02-07T18:55:38.929Z,11.15
2023-02-07T18:58:05.412Z,11.55
2023-02-07T19:00:31.855Z,13.02
2023-02-07T19:02:58.255Z,11.80
2023-02-07T19:05:24.598Z,12.93
2023-02-07T19:07:50.918Z,11.68
2023-02-07T19:10:17.401Z,11.93
2023-02-07T19:12:43.730Z,13.65
2023-02-07T19:15:10.287Z,13.93
2023-02-07T19:17:36.691Z,15.02
2023-02-07T19:20:03.168Z,15.70
2023-02-07T19:22:35.240Z,15.05
2023-02-07T19:25:02.723Z,15.23
2023-02-07T19:27:29.062Z,14.90
2023-02-07T19:29:55.386Z,13.60
2023-02-07T19:32:21.739Z,14.18
2023-02-07T19:34:49.159Z,13.63
2023-02-07T19:37:16.532Z,12.68
2023-02-07T19:39:44.768Z,13.40
2023-02-07T19:42:11.087Z,14.15
2023-02-07T19:44:37.472Z,13.63
2023-02-07T19:47:05.111Z,13.55
2023-02-07T19:49:31.627Z,14.57
2023-02-07T19:51:57.964Z,13.90
2023-02-07T19:54:24.300Z,13.68
2023-02-07T19:56:50.786Z,13.45
2023-02-07T19:59:18.607Z,13.77
2023-02-07T20:01:45.033Z,13.57
2023-02-07T20:04:11.434Z,12.73
2023-02-07T20:06:37.858Z,14.35
2023-02-07T20:09:05.760Z,13.95
2023-02-07T20:11:32.787Z,13.77
2023-02-07T20:14:02.963Z,13.75
2023-02-07T20:16:33.524Z,13.30
2023-02-07T20:19:00.693Z,13.27
2023-02-07T20:21:28.886Z,14.35
2023-02-07T20:23:56.996Z,14.07
2023-02-07T20:26:26.354Z,13.25
2023-02-07T20:28:53.572Z,12.20
2023-02-07T20:31:23.876Z,11.93
2023-02-07T20:33:50.589Z,12.98
2023-02-07T20:36:18.361Z,12.43
2023-02-07T20:38:46.353Z,11.35
2023-02-07T20:41:28.662Z,11.80
2023-02-07T20:44:05.252Z,11.38
2023-02-07T20:46:34.046Z,11.13
2023-02-07T20:49:03.637Z,11.68
2023-02-07T20:51:30.425Z,12.27
2023-02-07T20:53:59.572Z,11.63
2023-02-07T20:56:26.927Z,11.85
2023-02-07T20:58:54.395Z,11.05
2023-02-07T21:01:26.328Z,11.40
2023-02-07T21:03:55.049Z,12.25
2023-02-07T21:06:24.875Z,12.10
2023-02-07T21:08:55.213Z,14.00
2023-02-07T21:11:21.794Z,14.48
2023-02-07T21:13:53.854Z,14.02
2023-02-07T21:16:20.856Z,14.40
2023-02-07T21:18:48.043Z,14.93
2023-02-07T21:21:15.103Z,14.35
2023-02-07T21:23:41.730Z,15.45
2023-02-07T21:26:10.900Z,14.00
2023-02-07T21:28:37.429Z,14.50
2023-02-07T21:31:10.042Z,14.83
2023-02-07T21:33:36.515Z,13.63
2023-02-07T21:36:15.475Z,13.95
2023-02-07T21:38:45.893Z,12.60
2023-02-07T21:41:14.457Z,12.77
2023-02-07T21:43:42.005Z,13.20
2023-02-07T21:46:12.913Z,13.35
2023-02-07T21:48:41.713Z,14.23
2023-02-07T21:51:11.331Z,14.65
2023-02-07T21:53:38.374Z,14.40
2023-02-07T21:56:11.277Z,14.67
2023-02-07T21:58:37.676Z,14.70
2023-02-07T22:01:06.228Z,14.70
2023-02-07T22:03:32.653Z,14.88
2023-02-07T22:05:59.010Z,14.50
2023-02-07T22:08:25.378Z,12.63
2023-02-07T22:10:51.832Z,13.90
2023-02-07T22:13:18.267Z,14.05
2023-02-07T22:15:51.293Z,14.20
2023-02-07T22:18:17.685Z,12.82
2023-02-07T22:20:44.179Z,12.90
2023-02-07T22:23:10.518Z,12.65
2023-02-07T22:25:41.285Z,12.70
2023-02-07T22:28:08.385Z,12.05
2023-02-07T22:30:37.123Z,12.25
2023-02-07T22:33:05.593Z,11.70
2023-02-07T22:35:36.819Z,12.70
2023-02-07T22:38:04.158Z,11.65
2023-02-07T22:40:32.606Z,11.75
2023-02-07T22:42:59.129Z,12.45
2023-02-07T22:45:25.487Z,11.90
2023-02-07T22:47:51.873Z,11.25
2023-02-07T22:50:18.536Z,11.43
2023-02-07T22:52:45.568Z,11.70
2023-02-07T22:55:12.439Z,11.88
2023-02-07T22:57:38.813Z,12.57
2023-02-07T23:00:10.243Z,11.88
2023-02-07T23:02:36.729Z,13.02
2023-02-07T23:05:04.160Z,12.45
2023-02-07T23:07:30.592Z,12.32
2023-02-07T23:09:57.134Z,12.63
2023-02-07T23:12:23.524Z,12.02
2023-02-07T23:14:49.886Z,12.70
2023-02-07T23:17:16.232Z,12.98
2023-02-07T23:19:42.674Z,13.10
2023-02-07T23:22:09.052Z,13.73
2023-02-07T23:24:35.441Z,13.65
2023-02-07T23:27:01.828Z,12.23
2023-02-07T23:29:28.285Z,13.32
2023-02-07T23:31:55.059Z,13.00
2023-02-07T23:34:21.551Z,11.13
2023-02-07T23:36:48.989Z,12.05
2023-02-07T23:39:15.780Z,13.35
2023-02-07T23:41:42.248Z,13.32
2023-02-07T23:44:08.658Z,14.05
2023-02-07T23:46:35.487Z,12.70
2023-02-07T23:49:01.976Z,12.55
2023-02-07T23:51:28.553Z,11.70
2023-02-07T23:53:54.988Z,13.70
2023-02-07T23:56:23.589Z,13.88
2023-02-07T23:58:51.555Z,12.67
